sensor_id;sensor_type;location;lat;lon;timestamp;temperature;humidity
13256;DHT22;37913;48.370;10.930;2023-05-24T00:00:09;13.10;99.90
13256;DHT22;37913;48.370;10.930;2023-05-24T00:02:38;13.10;99.90
13256;DHT22;37913;48.370;10.930;2023-05-24T00:05:07;13.10;99.90
13256;DHT22;37913;48.370;10.930;2023-05-24T00:07:34;13.10;99.90
13256;DHT22;37913;48.370;10.930;2023-05-24T00:10:02;13.10;99.90
13256;DHT22;37913;48.370;10.930;2023-05-24T00:12:29;13.10;99.90
13256;DHT22;37913;48.370;10.930;2023-05-24T00:14:56;13.10;99.90
13256;DHT22;37913;48.370;10.930;2023-05-24T00:17:24;13.10;99.90
13256;DHT22;37913;48.370;10.930;2023-05-24T00:19:52;13.20;99.90
13256;DHT22;37913;48.370;10.930;2023-05-24T00:22:18;13.10;99.90
13256;DHT22;37913;48.370;10.930;2023-05-24T00:24:46;13.10;99.90
13256;DHT22;37913;48.370;10.930;2023-05-24T00:27:13;13.10;99.90
13256;DHT22;37913;48.370;10.930;2023-05-24T00:29:40;13.10;99.90
13256;DHT22;37913;48.370;10.930;2023-05-24T00:32:07;13.10;99.90
13256;DHT22;37913;48.370;10.930;2023-05-24T00:34:35;13.00;99.90
13256;DHT22;37913;48.370;10.930;2023-05-24T00:37:03;13.00;99.90
13256;DHT22;37913;48.370;10.930;2023-05-24T00:39:30;13.00;99.90
13256;DHT22;37913;48.370;10.930;2023-05-24T00:41:57;13.00;99.90
13256;DHT22;37913;48.370;10.930;2023-05-24T00:44:23;13.00;99.90
13256;DHT22;37913;48.370;10.930;2023-05-24T00:46:50;12.90;99.90
13256;DHT22;37913;48.370;10.930;2023-05-24T00:49:18;12.90;99.90
13256;DHT22;37913;48.370;10.930;2023-05-24T00:51:47;12.90;99.90
13256;DHT22;37913;48.370;10.930;2023-05-24T00:54:14;12.90;99.90
13256;DHT22;37913;48.370;10.930;2023-05-24T00:56:42;12.90;99.90
13256;DHT22;37913;48.370;10.930;2023-05-24T00:59:09;12.90;99.90
13256;DHT22;37913;48.370;10.930;2023-05-24T01:01:36;12.90;99.90
13256;DHT22;37913;48.370;10.930;2023-05-24T01:04:03;12.90;99.90
13256;DHT22;37913;48.370;10.930;2023-05-24T01:06:32;12.90;99.90
13256;DHT22;37913;48.370;10.930;2023-05-24T01:09:16;12.90;99.90
13256;DHT22;37913;48.370;10.930;2023-05-24T01:11:58;12.80;99.90
13256;DHT22;37913;48.370;10.930;2023-05-24T01:14:28;12.80;99.90
13256;DHT22;37913;48.370;10.930;2023-05-24T01:17:03;12.80;99.90
13256;DHT22;37913;48.370;10.930;2023-05-24T01:19:48;12.80;99.90
13256;DHT22;37913;48.370;10.930;2023-05-24T01:22:27;12.80;99.90
13256;DHT22;37913;48.370;10.930;2023-05-24T01:25:02;12.70;99.90
13256;DHT22;37913;48.370;10.930;2023-05-24T01:27:32;12.70;99.90
13256;DHT22;37913;48.370;10.930;2023-05-24T01:30:01;12.70;99.90
13256;DHT22;37913;48.370;10.930;2023-05-24T01:32:29;12.70;99.90
13256;DHT22;37913;48.370;10.930;2023-05-24T01:34:56;12.70;99.90
13256;DHT22;37913;48.370;10.930;2023-05-24T01:37:23;12.70;99.90
13256;DHT22;37913;48.370;10.930;2023-05-24T01:39:50;12.70;99.90
13256;DHT22;37913;48.370;10.930;2023-05-24T01:42:24;12.60;99.90
13256;DHT22;37913;48.370;10.930;2023-05-24T01:45:01;12.60;99.90
13256;DHT22;37913;48.370;10.930;2023-05-24T01:47:36;12.60;99.90
13256;DHT22;37913;48.370;10.930;2023-05-24T01:50:14;12.50;99.90
13256;DHT22;37913;48.370;10.930;2023-05-24T01:52:43;12.50;99.90
13256;DHT22;37913;48.370;10.930;2023-05-24T01:55:13;12.40;99.90
13256;DHT22;37913;48.370;10.930;2023-05-24T01:57:43;12.40;99.90
13256;DHT22;37913;48.370;10.930;2023-05-24T02:00:14;12.40;99.90
13256;DHT22;37913;48.370;10.930;2023-05-24T02:02:41;12.40;99.90
13256;DHT22;37913;48.370;10.930;2023-05-24T02:05:09;12.30;99.90
13256;DHT22;37913;48.370;10.930;2023-05-24T02:07:36;12.30;99.90
13256;DHT22;37913;48.370;10.930;2023-05-24T02:10:03;12.20;99.90
13256;DHT22;37913;48.370;10.930;2023-05-24T02:12:30;12.20;99.90
13256;DHT22;37913;48.370;10.930;2023-05-24T02:14:57;12.20;99.90
13256;DHT22;37913;48.370;10.930;2023-05-24T02:17:26;12.20;99.90
13256;DHT22;37913;48.370;10.930;2023-05-24T02:19:53;12.10;99.90
13256;DHT22;37913;48.370;10.930;2023-05-24T02:22:19;12.10;99.90
13256;DHT22;37913;48.370;10.930;2023-05-24T02:24:47;12.10;99.90
13256;DHT22;37913;48.370;10.930;2023-05-24T02:27:14;12.00;99.90
13256;DHT22;37913;48.370;10.930;2023-05-24T02:29:41;12.00;99.90
13256;DHT22;37913;48.370;10.930;2023-05-24T02:32:08;12.00;99.90
13256;DHT22;37913;48.370;10.930;2023-05-24T02:34:36;12.00;99.90
13256;DHT22;37913;48.370;10.930;2023-05-24T02:37:04;12.00;99.90
13256;DHT22;37913;48.370;10.930;2023-05-24T02:39:31;11.90;99.90
13256;DHT22;37913;48.370;10.930;2023-05-24T02:41:57;11.90;99.90
13256;DHT22;37913;48.370;10.930;2023-05-24T02:44:24;11.90;99.90
13256;DHT22;37913;48.370;10.930;2023-05-24T02:46:51;11.90;99.90
13256;DHT22;37913;48.370;10.930;2023-05-24T02:49:18;11.80;99.90
13256;DHT22;37913;48.370;10.930;2023-05-24T02:51:46;11.80;99.90
13256;DHT22;37913;48.370;10.930;2023-05-24T02:54:14;11.80;99.90
13256;DHT22;37913;48.370;10.930;2023-05-24T02:56:42;11.70;99.90
13256;DHT22;37913;48.370;10.930;2023-05-24T02:59:09;11.70;99.90
13256;DHT22;37913;48.370;10.930;2023-05-24T03:01:37;11.60;99.90
13256;DHT22;37913;48.370;10.930;2023-05-24T03:04:04;11.60;99.90
13256;DHT22;37913;48.370;10.930;2023-05-24T03:06:31;11.60;99.90
13256;DHT22;37913;48.370;10.930;2023-05-24T03:09:00;11.50;99.90
13256;DHT22;37913;48.370;10.930;2023-05-24T03:11:26;11.50;99.90
13256;DHT22;37913;48.370;10.930;2023-05-24T03:13:53;11.50;99.90
13256;DHT22;37913;48.370;10.930;2023-05-24T03:16:20;11.40;99.90
13256;DHT22;37913;48.370;10.930;2023-05-24T03:18:47;11.40;99.90
13256;DHT22;37913;48.370;10.930;2023-05-24T03:21:15;11.30;99.90
13256;DHT22;37913;48.370;10.930;2023-05-24T03:23:44;11.30;99.90
13256;DHT22;37913;48.370;10.930;2023-05-24T03:26:13;11.30;99.90
13256;DHT22;37913;48.370;10.930;2023-05-24T03:28:40;11.20;99.90
13256;DHT22;37913;48.370;10.930;2023-05-24T03:31:06;11.20;99.90
13256;DHT22;37913;48.370;10.930;2023-05-24T03:33:33;11.20;99.90
13256;DHT22;37913;48.370;10.930;2023-05-24T03:36:00;11.10;99.90
13256;DHT22;37913;48.370;10.930;2023-05-24T03:38:28;11.00;99.90
13256;DHT22;37913;48.370;10.930;2023-05-24T03:40:55;11.00;99.90
13256;DHT22;37913;48.370;10.930;2023-05-24T03:43:25;10.90;99.90
13256;DHT22;37913;48.370;10.930;2023-05-24T03:45:52;10.90;99.90
13256;DHT22;37913;48.370;10.930;2023-05-24T03:48:19;10.80;99.90
13256;DHT22;37913;48.370;10.930;2023-05-24T03:50:46;10.70;99.90
13256;DHT22;37913;48.370;10.930;2023-05-24T03:53:13;10.80;99.90
13256;DHT22;37913;48.370;10.930;2023-05-24T03:55:40;10.70;99.90
13256;DHT22;37913;48.370;10.930;2023-05-24T03:58:06;10.70;99.90
13256;DHT22;37913;48.370;10.930;2023-05-24T04:00:35;10.70;99.90
13256;DHT22;37913;48.370;10.930;2023-05-24T04:03:02;10.60;99.90
13256;DHT22;37913;48.370;10.930;2023-05-24T04:05:31;10.60;99.90
13256;DHT22;37913;48.370;10.930;2023-05-24T04:07:58;10.50;99.90
13256;DHT22;37913;48.370;10.930;2023-05-24T04:10:25;10.60;99.90
13256;DHT22;37913;48.370;10.930;2023-05-24T04:12:52;10.50;99.90
13256;DHT22;37913;48.370;10.930;2023-05-24T04:15:21;10.50;99.90
13256;DHT22;37913;48.370;10.930;2023-05-24T04:17:49;10.50;99.90
13256;DHT22;37913;48.370;10.930;2023-05-24T04:20:19;10.50;99.90
13256;DHT22;37913;48.370;10.930;2023-05-24T04:22:47;10.50;99.90
13256;DHT22;37913;48.370;10.930;2023-05-24T04:25:14;10.60;99.90
13256;DHT22;37913;48.370;10.930;2023-05-24T04:27:42;10.70;99.90
13256;DHT22;37913;48.370;10.930;2023-05-24T04:30:10;10.70;99.90
13256;DHT22;37913;48.370;10.930;2023-05-24T04:32:38;10.70;99.90
13256;DHT22;37913;48.370;10.930;2023-05-24T04:35:07;10.80;99.90
13256;DHT22;37913;48.370;10.930;2023-05-24T04:37:34;10.90;99.90
13256;DHT22;37913;48.370;10.930;2023-05-24T04:40:01;10.90;99.90
13256;DHT22;37913;48.370;10.930;2023-05-24T04:42:30;11.00;99.90
13256;DHT22;37913;48.370;10.930;2023-05-24T04:44:57;11.10;99.90
13256;DHT22;37913;48.370;10.930;2023-05-24T04:47:24;11.10;99.90
13256;DHT22;37913;48.370;10.930;2023-05-24T04:49:51;11.20;99.90
13256;DHT22;37913;48.370;10.930;2023-05-24T04:52:20;11.30;99.90
13256;DHT22;37913;48.370;10.930;2023-05-24T04:54:48;11.40;99.90
13256;DHT22;37913;48.370;10.930;2023-05-24T04:57:15;11.50;99.90
13256;DHT22;37913;48.370;10.930;2023-05-24T04:59:42;11.60;99.90
13256;DHT22;37913;48.370;10.930;2023-05-24T05:02:09;11.70;99.90
13256;DHT22;37913;48.370;10.930;2023-05-24T05:04:36;11.90;99.90
13256;DHT22;37913;48.370;10.930;2023-05-24T05:07:03;12.00;99.90
13256;DHT22;37913;48.370;10.930;2023-05-24T05:09:32;12.10;99.90
13256;DHT22;37913;48.370;10.930;2023-05-24T05:11:59;12.00;99.90
13256;DHT22;37913;48.370;10.930;2023-05-24T05:14:25;12.10;99.90
13256;DHT22;37913;48.370;10.930;2023-05-24T05:16:53;12.10;99.90
13256;DHT22;37913;48.370;10.930;2023-05-24T05:19:20;12.00;99.90
13256;DHT22;37913;48.370;10.930;2023-05-24T05:21:47;12.10;99.90
13256;DHT22;37913;48.370;10.930;2023-05-24T05:24:14;12.10;99.90
13256;DHT22;37913;48.370;10.930;2023-05-24T05:26:42;12.20;99.90
13256;DHT22;37913;48.370;10.930;2023-05-24T05:29:09;12.40;99.90
13256;DHT22;37913;48.370;10.930;2023-05-24T05:31:36;12.40;99.90
13256;DHT22;37913;48.370;10.930;2023-05-24T05:34:04;12.60;99.90
13256;DHT22;37913;48.370;10.930;2023-05-24T05:36:34;12.80;99.90
13256;DHT22;37913;48.370;10.930;2023-05-24T05:39:05;12.80;99.90
13256;DHT22;37913;48.370;10.930;2023-05-24T05:41:37;12.80;99.90
13256;DHT22;37913;48.370;10.930;2023-05-24T05:44:05;12.90;99.90
13256;DHT22;37913;48.370;10.930;2023-05-24T05:46:32;13.10;99.90
13256;DHT22;37913;48.370;10.930;2023-05-24T05:48:59;13.30;99.90
13256;DHT22;37913;48.370;10.930;2023-05-24T05:51:26;13.40;99.90
13256;DHT22;37913;48.370;10.930;2023-05-24T05:53:53;13.50;99.90
13256;DHT22;37913;48.370;10.930;2023-05-24T05:56:20;13.80;99.90
13256;DHT22;37913;48.370;10.930;2023-05-24T05:58:47;14.00;99.90
13256;DHT22;37913;48.370;10.930;2023-05-24T06:01:15;14.20;99.90
13256;DHT22;37913;48.370;10.930;2023-05-24T06:03:42;14.30;99.90
13256;DHT22;37913;48.370;10.930;2023-05-24T06:06:09;14.40;99.90
13256;DHT22;37913;48.370;10.930;2023-05-24T06:08:37;14.60;99.90
13256;DHT22;37913;48.370;10.930;2023-05-24T06:11:05;14.70;99.90
13256;DHT22;37913;48.370;10.930;2023-05-24T06:13:32;14.90;99.90
13256;DHT22;37913;48.370;10.930;2023-05-24T06:15:59;14.90;99.90
13256;DHT22;37913;48.370;10.930;2023-05-24T06:18:28;15.30;99.90
13256;DHT22;37913;48.370;10.930;2023-05-24T06:20:57;15.10;99.90
13256;DHT22;37913;48.370;10.930;2023-05-24T06:23:23;15.40;99.90
13256;DHT22;37913;48.370;10.930;2023-05-24T06:25:51;15.90;99.90
13256;DHT22;37913;48.370;10.930;2023-05-24T06:28:18;16.00;99.90
13256;DHT22;37913;48.370;10.930;2023-05-24T06:30:45;16.30;99.90
13256;DHT22;37913;48.370;10.930;2023-05-24T06:33:13;16.00;99.90
13256;DHT22;37913;48.370;10.930;2023-05-24T06:35:41;16.10;99.90
13256;DHT22;37913;48.370;10.930;2023-05-24T06:38:08;16.80;99.90
13256;DHT22;37913;48.370;10.930;2023-05-24T06:40:35;16.80;99.90
13256;DHT22;37913;48.370;10.930;2023-05-24T06:43:02;17.10;99.90
13256;DHT22;37913;48.370;10.930;2023-05-24T06:45:29;17.20;99.90
13256;DHT22;37913;48.370;10.930;2023-05-24T06:47:56;17.30;99.90
13256;DHT22;37913;48.370;10.930;2023-05-24T06:50:24;17.40;99.90
13256;DHT22;37913;48.370;10.930;2023-05-24T06:52:52;18.40;99.90
13256;DHT22;37913;48.370;10.930;2023-05-24T06:55:19;18.50;99.90
13256;DHT22;37913;48.370;10.930;2023-05-24T06:57:46;19.00;99.90
13256;DHT22;37913;48.370;10.930;2023-05-24T07:00:14;20.00;99.90
13256;DHT22;37913;48.370;10.930;2023-05-24T07:02:41;21.10;99.90
13256;DHT22;37913;48.370;10.930;2023-05-24T07:05:08;22.00;99.90
13256;DHT22;37913;48.370;10.930;2023-05-24T07:07:37;22.40;99.90
13256;DHT22;37913;48.370;10.930;2023-05-24T07:10:08;22.00;99.90
13256;DHT22;37913;48.370;10.930;2023-05-24T07:12:35;21.90;99.90
13256;DHT22;37913;48.370;10.930;2023-05-24T07:15:02;21.70;99.90
13256;DHT22;37913;48.370;10.930;2023-05-24T07:17:29;21.90;99.90
13256;DHT22;37913;48.370;10.930;2023-05-24T07:19:56;21.80;99.90
13256;DHT22;37913;48.370;10.930;2023-05-24T07:22:23;21.70;98.90
13256;DHT22;37913;48.370;10.930;2023-05-24T07:24:54;21.90;99.20
13256;DHT22;37913;48.370;10.930;2023-05-24T07:27:22;21.60;99.50
13256;DHT22;37913;48.370;10.930;2023-05-24T07:29:49;21.50;99.40
13256;DHT22;37913;48.370;10.930;2023-05-24T07:32:19;20.80;99.60
13256;DHT22;37913;48.370;10.930;2023-05-24T07:34:46;20.50;99.90
13256;DHT22;37913;48.370;10.930;2023-05-24T07:37:13;20.50;99.90
13256;DHT22;37913;48.370;10.930;2023-05-24T07:39:41;19.90;99.90
13256;DHT22;37913;48.370;10.930;2023-05-24T07:42:11;19.60;99.90
13256;DHT22;37913;48.370;10.930;2023-05-24T07:44:39;19.10;99.90
13256;DHT22;37913;48.370;10.930;2023-05-24T07:47:10;19.50;99.90
13256;DHT22;37913;48.370;10.930;2023-05-24T07:49:38;19.60;99.90
13256;DHT22;37913;48.370;10.930;2023-05-24T07:52:06;19.20;99.90
13256;DHT22;37913;48.370;10.930;2023-05-24T07:54:34;18.60;99.90
13256;DHT22;37913;48.370;10.930;2023-05-24T07:57:02;18.70;99.90
13256;DHT22;37913;48.370;10.930;2023-05-24T07:59:29;19.00;99.90
13256;DHT22;37913;48.370;10.930;2023-05-24T08:01:57;18.80;99.90
13256;DHT22;37913;48.370;10.930;2023-05-24T08:04:28;18.80;99.90
13256;DHT22;37913;48.370;10.930;2023-05-24T08:06:55;19.10;99.90
13256;DHT22;37913;48.370;10.930;2023-05-24T08:09:24;19.30;99.90
13256;DHT22;37913;48.370;10.930;2023-05-24T08:11:52;19.10;99.90
13256;DHT22;37913;48.370;10.930;2023-05-24T08:14:19;18.90;99.90
13256;DHT22;37913;48.370;10.930;2023-05-24T08:16:47;19.60;99.90
13256;DHT22;37913;48.370;10.930;2023-05-24T08:19:15;19.90;99.00
13256;DHT22;37913;48.370;10.930;2023-05-24T08:21:42;19.70;99.50
13256;DHT22;37913;48.370;10.930;2023-05-24T08:24:09;20.00;98.90
13256;DHT22;37913;48.370;10.930;2023-05-24T08:26:38;20.10;99.00
13256;DHT22;37913;48.370;10.930;2023-05-24T08:29:06;20.00;98.70
13256;DHT22;37913;48.370;10.930;2023-05-24T08:31:34;20.20;98.30
13256;DHT22;37913;48.370;10.930;2023-05-24T08:34:03;20.20;97.60
13256;DHT22;37913;48.370;10.930;2023-05-24T08:36:33;20.30;98.00
13256;DHT22;37913;48.370;10.930;2023-05-24T08:39:00;20.20;96.80
13256;DHT22;37913;48.370;10.930;2023-05-24T08:41:27;20.00;97.00
13256;DHT22;37913;48.370;10.930;2023-05-24T08:43:59;20.00;97.20
13256;DHT22;37913;48.370;10.930;2023-05-24T08:46:27;19.60;97.30
13256;DHT22;37913;48.370;10.930;2023-05-24T08:49:05;19.40;97.30
13256;DHT22;37913;48.370;10.930;2023-05-24T08:51:40;19.30;97.20
13256;DHT22;37913;48.370;10.930;2023-05-24T08:54:10;19.00;96.90
13256;DHT22;37913;48.370;10.930;2023-05-24T08:56:40;18.90;97.80
13256;DHT22;37913;48.370;10.930;2023-05-24T08:59:08;19.30;97.60
13256;DHT22;37913;48.370;10.930;2023-05-24T09:01:39;19.30;97.70
13256;DHT22;37913;48.370;10.930;2023-05-24T09:04:12;19.70;98.00
13256;DHT22;37913;48.370;10.930;2023-05-24T09:06:42;19.80;97.60
13256;DHT22;37913;48.370;10.930;2023-05-24T09:09:30;19.80;96.90
13256;DHT22;37913;48.370;10.930;2023-05-24T09:12:01;20.30;96.10
13256;DHT22;37913;48.370;10.930;2023-05-24T09:14:51;21.40;95.30
13256;DHT22;37913;48.370;10.930;2023-05-24T09:17:20;21.70;93.70
13256;DHT22;37913;48.370;10.930;2023-05-24T09:19:49;22.00;92.80
13256;DHT22;37913;48.370;10.930;2023-05-24T09:22:19;22.10;92.40
13256;DHT22;37913;48.370;10.930;2023-05-24T09:25:07;22.30;92.40
13256;DHT22;37913;48.370;10.930;2023-05-24T09:27:35;21.80;91.50
13256;DHT22;37913;48.370;10.930;2023-05-24T09:30:07;22.00;91.90
13256;DHT22;37913;48.370;10.930;2023-05-24T09:32:35;22.30;92.00
13256;DHT22;37913;48.370;10.930;2023-05-24T09:35:07;22.50;92.00
13256;DHT22;37913;48.370;10.930;2023-05-24T09:37:36;22.60;90.90
13256;DHT22;37913;48.370;10.930;2023-05-24T09:40:05;22.80;89.90
13256;DHT22;37913;48.370;10.930;2023-05-24T09:42:33;23.00;88.60
13256;DHT22;37913;48.370;10.930;2023-05-24T09:45:01;23.10;88.70
13256;DHT22;37913;48.370;10.930;2023-05-24T09:47:32;23.80;88.70
13256;DHT22;37913;48.370;10.930;2023-05-24T09:49:59;23.70;86.30
13256;DHT22;37913;48.370;10.930;2023-05-24T09:52:28;23.70;86.10
13256;DHT22;37913;48.370;10.930;2023-05-24T09:54:56;24.00;87.00
13256;DHT22;37913;48.370;10.930;2023-05-24T09:57:24;23.80;85.90
13256;DHT22;37913;48.370;10.930;2023-05-24T09:59:52;22.50;88.30
13256;DHT22;37913;48.370;10.930;2023-05-24T10:02:21;22.30;87.70
13256;DHT22;37913;48.370;10.930;2023-05-24T10:07:25;21.50;88.40
13256;DHT22;37913;48.370;10.930;2023-05-24T10:09:53;21.70;88.20
13256;DHT22;37913;48.370;10.930;2023-05-24T10:12:21;21.80;88.80
13256;DHT22;37913;48.370;10.930;2023-05-24T10:14:50;21.60;90.00
13256;DHT22;37913;48.370;10.930;2023-05-24T10:17:17;21.00;90.40
13256;DHT22;37913;48.370;10.930;2023-05-24T10:19:44;21.00;90.70
13256;DHT22;37913;48.370;10.930;2023-05-24T10:22:12;20.70;91.60
13256;DHT22;37913;48.370;10.930;2023-05-24T10:24:45;21.00;91.10
13256;DHT22;37913;48.370;10.930;2023-05-24T10:27:16;21.30;90.00
13256;DHT22;37913;48.370;10.930;2023-05-24T10:29:53;21.50;90.10
13256;DHT22;37913;48.370;10.930;2023-05-24T10:32:25;22.20;87.60
13256;DHT22;37913;48.370;10.930;2023-05-24T10:34:56;22.70;85.90
13256;DHT22;37913;48.370;10.930;2023-05-24T10:37:24;23.20;83.10
13256;DHT22;37913;48.370;10.930;2023-05-24T10:39:52;23.50;85.20
13256;DHT22;37913;48.370;10.930;2023-05-24T10:42:19;23.70;83.80
13256;DHT22;37913;48.370;10.930;2023-05-24T10:44:47;24.30;83.60
13256;DHT22;37913;48.370;10.930;2023-05-24T10:47:14;24.30;81.10
13256;DHT22;37913;48.370;10.930;2023-05-24T10:49:47;23.70;81.10
13256;DHT22;37913;48.370;10.930;2023-05-24T10:52:15;23.10;82.20
13256;DHT22;37913;48.370;10.930;2023-05-24T10:55:00;23.10;82.90
13256;DHT22;37913;48.370;10.930;2023-05-24T10:57:28;23.20;81.90
13256;DHT22;37913;48.370;10.930;2023-05-24T11:00:06;23.20;82.30
13256;DHT22;37913;48.370;10.930;2023-05-24T11:02:58;23.00;81.90
13256;DHT22;37913;48.370;10.930;2023-05-24T11:05:32;23.10;80.40
13256;DHT22;37913;48.370;10.930;2023-05-24T11:08:00;23.30;81.40
13256;DHT22;37913;48.370;10.930;2023-05-24T11:10:31;22.60;84.40
13256;DHT22;37913;48.370;10.930;2023-05-24T11:12:59;22.10;83.30
13256;DHT22;37913;48.370;10.930;2023-05-24T11:15:28;22.20;84.70
13256;DHT22;37913;48.370;10.930;2023-05-24T11:18:14;23.10;82.80
13256;DHT22;37913;48.370;10.930;2023-05-24T11:20:42;23.60;82.80
13256;DHT22;37913;48.370;10.930;2023-05-24T11:23:10;23.20;82.30
13256;DHT22;37913;48.370;10.930;2023-05-24T11:25:37;23.50;81.00
13256;DHT22;37913;48.370;10.930;2023-05-24T11:28:06;23.80;80.80
13256;DHT22;37913;48.370;10.930;2023-05-24T11:30:38;23.80;80.50
13256;DHT22;37913;48.370;10.930;2023-05-24T11:33:12;24.10;80.00
13256;DHT22;37913;48.370;10.930;2023-05-24T11:35:38;25.60;78.30
13256;DHT22;37913;48.370;10.930;2023-05-24T11:38:09;28.00;73.90
13256;DHT22;37913;48.370;10.930;2023-05-24T11:40:38;29.00;71.20
13256;DHT22;37913;48.370;10.930;2023-05-24T11:43:10;30.30;66.50
13256;DHT22;37913;48.370;10.930;2023-05-24T11:45:40;31.90;62.00
13256;DHT22;37913;48.370;10.930;2023-05-24T11:48:07;32.60;58.50
13256;DHT22;37913;48.370;10.930;2023-05-24T11:50:38;33.40;57.20
13256;DHT22;37913;48.370;10.930;2023-05-24T11:53:08;33.80;56.00
13256;DHT22;37913;48.370;10.930;2023-05-24T11:55:35;35.30;55.60
13256;DHT22;37913;48.370;10.930;2023-05-24T11:58:06;34.80;55.00
13256;DHT22;37913;48.370;10.930;2023-05-24T12:00:36;33.40;53.70
13256;DHT22;37913;48.370;10.930;2023-05-24T12:03:05;32.00;53.10
13256;DHT22;37913;48.370;10.930;2023-05-24T12:05:34;30.30;54.60
13256;DHT22;37913;48.370;10.930;2023-05-24T12:08:03;29.50;56.30
13256;DHT22;37913;48.370;10.930;2023-05-24T12:10:31;29.00;56.40
13256;DHT22;37913;48.370;10.930;2023-05-24T12:12:59;29.60;55.50
13256;DHT22;37913;48.370;10.930;2023-05-24T12:15:26;29.30;56.00
13256;DHT22;37913;48.370;10.930;2023-05-24T12:17:53;29.10;55.10
13256;DHT22;37913;48.370;10.930;2023-05-24T12:20:22;29.00;56.20
13256;DHT22;37913;48.370;10.930;2023-05-24T12:22:50;28.80;56.80
13256;DHT22;37913;48.370;10.930;2023-05-24T12:25:18;28.70;56.40
13256;DHT22;37913;48.370;10.930;2023-05-24T12:27:46;28.10;58.60
13256;DHT22;37913;48.370;10.930;2023-05-24T12:30:14;28.10;57.10
13256;DHT22;37913;48.370;10.930;2023-05-24T12:32:46;28.20;56.80
13256;DHT22;37913;48.370;10.930;2023-05-24T12:35:15;28.40;56.50
13256;DHT22;37913;48.370;10.930;2023-05-24T12:37:44;28.50;57.20
13256;DHT22;37913;48.370;10.930;2023-05-24T12:40:15;29.50;56.40
13256;DHT22;37913;48.370;10.930;2023-05-24T12:42:45;31.00;56.20
13256;DHT22;37913;48.370;10.930;2023-05-24T12:45:14;30.40;54.70
13256;DHT22;37913;48.370;10.930;2023-05-24T12:47:50;29.00;56.00
13256;DHT22;37913;48.370;10.930;2023-05-24T12:50:20;29.30;57.10
13256;DHT22;37913;48.370;10.930;2023-05-24T12:52:49;30.40;55.00
13256;DHT22;37913;48.370;10.930;2023-05-24T12:55:18;31.10;54.30
13256;DHT22;37913;48.370;10.930;2023-05-24T12:57:45;31.90;53.00
13256;DHT22;37913;48.370;10.930;2023-05-24T13:00:18;32.70;53.00
13256;DHT22;37913;48.370;10.930;2023-05-24T13:02:46;34.60;51.90
13256;DHT22;37913;48.370;10.930;2023-05-24T13:05:13;34.80;49.50
13256;DHT22;37913;48.370;10.930;2023-05-24T13:07:42;35.70;51.10
13256;DHT22;37913;48.370;10.930;2023-05-24T13:10:11;34.80;49.50
13256;DHT22;37913;48.370;10.930;2023-05-24T13:12:39;31.90;52.60
13256;DHT22;37913;48.370;10.930;2023-05-24T13:15:07;30.70;54.50
13256;DHT22;37913;48.370;10.930;2023-05-24T13:17:34;30.50;53.00
13256;DHT22;37913;48.370;10.930;2023-05-24T13:20:04;29.60;55.30
13256;DHT22;37913;48.370;10.930;2023-05-24T13:22:33;29.20;54.70
13256;DHT22;37913;48.370;10.930;2023-05-24T13:25:00;30.00;54.30
13256;DHT22;37913;48.370;10.930;2023-05-24T13:27:29;32.30;53.10
13256;DHT22;37913;48.370;10.930;2023-05-24T13:29:56;32.30;51.20
13256;DHT22;37913;48.370;10.930;2023-05-24T13:32:23;32.10;51.40
13256;DHT22;37913;48.370;10.930;2023-05-24T13:34:50;30.20;52.20
13256;DHT22;37913;48.370;10.930;2023-05-24T13:37:17;28.20;55.20
13256;DHT22;37913;48.370;10.930;2023-05-24T13:39:44;27.10;57.20
13256;DHT22;37913;48.370;10.930;2023-05-24T13:42:12;28.90;57.00
13256;DHT22;37913;48.370;10.930;2023-05-24T13:44:41;29.90;55.60
13256;DHT22;37913;48.370;10.930;2023-05-24T13:47:08;29.40;55.30
13256;DHT22;37913;48.370;10.930;2023-05-24T13:49:35;27.90;58.10
13256;DHT22;37913;48.370;10.930;2023-05-24T13:52:02;26.90;58.90
13256;DHT22;37913;48.370;10.930;2023-05-24T13:54:29;26.00;58.60
13256;DHT22;37913;48.370;10.930;2023-05-24T13:56:56;25.10;61.70
13256;DHT22;37913;48.370;10.930;2023-05-24T13:59:24;24.80;62.60
13256;DHT22;37913;48.370;10.930;2023-05-24T14:01:52;24.70;62.70
13256;DHT22;37913;48.370;10.930;2023-05-24T14:04:19;23.90;63.10
13256;DHT22;37913;48.370;10.930;2023-05-24T14:06:46;23.60;66.20
13256;DHT22;37913;48.370;10.930;2023-05-24T14:09:13;23.00;68.20
13256;DHT22;37913;48.370;10.930;2023-05-24T14:11:40;23.00;69.20
13256;DHT22;37913;48.370;10.930;2023-05-24T14:14:08;22.70;68.50
13256;DHT22;37913;48.370;10.930;2023-05-24T14:16:35;22.30;69.60
13256;DHT22;37913;48.370;10.930;2023-05-24T14:19:04;21.80;70.50
13256;DHT22;37913;48.370;10.930;2023-05-24T14:21:32;22.00;70.90
13256;DHT22;37913;48.370;10.930;2023-05-24T14:23:59;22.20;71.10
13256;DHT22;37913;48.370;10.930;2023-05-24T14:26:26;22.00;71.30
13256;DHT22;37913;48.370;10.930;2023-05-24T14:28:53;21.80;72.30
13256;DHT22;37913;48.370;10.930;2023-05-24T14:31:20;21.70;72.90
13256;DHT22;37913;48.370;10.930;2023-05-24T14:33:47;20.90;73.10
13256;DHT22;37913;48.370;10.930;2023-05-24T14:36:15;19.90;75.60
13256;DHT22;37913;48.370;10.930;2023-05-24T14:38:43;19.90;77.30
13256;DHT22;37913;48.370;10.930;2023-05-24T14:41:10;19.70;79.90
13256;DHT22;37913;48.370;10.930;2023-05-24T14:43:37;19.70;80.70
13256;DHT22;37913;48.370;10.930;2023-05-24T14:46:04;19.50;81.30
13256;DHT22;37913;48.370;10.930;2023-05-24T14:48:31;19.20;83.00
13256;DHT22;37913;48.370;10.930;2023-05-24T14:50:58;19.30;83.30
13256;DHT22;37913;48.370;10.930;2023-05-24T14:53:27;19.10;83.80
13256;DHT22;37913;48.370;10.930;2023-05-24T14:55:53;18.80;85.40
13256;DHT22;37913;48.370;10.930;2023-05-24T14:58:21;18.80;87.20
13256;DHT22;37913;48.370;10.930;2023-05-24T15:00:48;18.70;87.50
13256;DHT22;37913;48.370;10.930;2023-05-24T15:03:15;18.80;88.40
13256;DHT22;37913;48.370;10.930;2023-05-24T15:05:49;18.90;88.60
13256;DHT22;37913;48.370;10.930;2023-05-24T15:08:16;18.60;90.40
13256;DHT22;37913;48.370;10.930;2023-05-24T15:10:45;17.90;90.90
13256;DHT22;37913;48.370;10.930;2023-05-24T15:13:12;17.90;90.90
13256;DHT22;37913;48.370;10.930;2023-05-24T15:15:39;18.00;91.60
13256;DHT22;37913;48.370;10.930;2023-05-24T15:18:07;18.40;91.70
13256;DHT22;37913;48.370;10.930;2023-05-24T15:20:34;18.50;91.20
13256;DHT22;37913;48.370;10.930;2023-05-24T15:23:01;18.10;90.80
13256;DHT22;37913;48.370;10.930;2023-05-24T15:25:28;18.00;91.60